Time;durP1;ratioP1;P1;durP2;ratioP2;P2;SDS_P1;SDS_P2;PMS_P1;PMS_P2;Temp;Humidity;BMP_temperature;BMP_pressure;BME280_temperature;BME280_humidity;BME280_pressure;Samples;Min_cycle;Max_cycle;Signal;HPM_P1;HPM_P2
2021/11/25 00:14:53;;;;;;;8.75;6.03;;;;;;;;;;143733;594;46021;-61
2021/11/25 00:17:23;;;;;;;11.77;6.97;;;;;;;;;;143730;577;46020;-60
2021/11/25 00:19:55;;;;;;;10.55;6.25;;;;;;;;;;143732;570;46020;-61
2021/11/25 00:22:26;;;;;;;9.38;6.85;;;;;;;;;;143728;610;46023;-61
2021/11/25 00:24:58;;;;;;;12.13;6.37;;;;;;;;;;143728;582;46918;-61
2021/11/25 00:27:27;;;;;;;10.77;7.15;;;;;;;;;;143727;567;46020;-60
2021/11/25 00:30:05;;;;;;;12.60;7.35;;;;;;;;;;143730;592;46021;-60
2021/11/25 00:32:38;;;;;;;9.70;6.50;;;;;;;;;;143727;572;47020;-60
2021/11/25 00:35:09;;;;;;;11.25;6.60;;;;;;;;;;143728;609;46021;-61
2021/11/25 00:37:42;;;;;;;11.57;6.55;;;;;;;;;;143726;599;46046;-61
2021/11/25 00:40:17;;;;;;;10.25;6.37;;;;;;;;;;143729;615;46020;-61
2021/11/25 00:42:46;;;;;;;13.15;8.38;;;;;;;;;;143735;601;46022;-60
2021/11/25 00:45:18;;;;;;;14.40;8.43;;;;;;;;;;143725;571;47010;-62
2021/11/25 00:47:46;;;;;;;20.88;8.32;;;;;;;;;;143729;641;46020;-61
2021/11/25 00:52:50;;;;;;;9.20;6.45;;;;;;;;;;143735;564;46021;-60
2021/11/25 00:55:20;;;;;;;8.88;6.60;;;;;;;;;;143730;623;46010;-61
2021/11/25 00:57:51;;;;;;;12.25;6.85;;;;;;;;;;143727;622;47020;-60
2021/11/25 01:05:29;;;;;;;12.00;7.82;;;;;;;;;;143731;593;45936;-61
2021/11/25 01:07:58;;;;;;;10.13;7.28;;;;;;;;;;143727;564;46020;-60
2021/11/25 01:36:23;;;;;;;10.77;7.50;;;;;;;;;;143745;628;45941;-61
2021/11/25 01:38:51;;;;;;;;;;;;;;;;;;143748;980;46020;-60
2021/11/25 01:43:57;;;;;;;11.45;6.90;;;;;;;;;;143745;564;45021;-61
2021/11/25 01:46:26;;;;;;;12.00;6.50;;;;;;;;;;143744;631;46010;-61
2021/11/25 01:48:54;;;;;;;10.80;6.50;;;;;;;;;;143744;570;46020;-59
2021/11/25 01:51:25;;;;;;;15.85;7.75;;;;;;;;;;143747;589;46020;-60
2021/11/25 01:53:53;;;;;;;10.93;6.82;;;;;;;;;;143744;600;46022;-61
2021/11/25 01:56:23;;;;;;;10.00;6.40;;;;;;;;;;143742;587;47010;-61
2021/11/25 01:58:55;;;;;;;15.10;6.97;;;;;;;;;;143744;579;46021;-61
2021/11/25 02:01:25;;;;;;;13.45;7.90;;;;;;;;;;143746;597;46020;-61
2021/11/25 02:03:56;;;;;;;12.65;7.80;;;;;;;;;;143746;639;46022;-61
2021/11/25 02:06:40;;;;;;;14.52;7.32;;;;;;;;;;143742;632;46021;-60
2021/11/25 02:09:26;;;;;;;16.73;8.07;;;;;;;;;;143744;755;46020;-61
2021/11/25 04:18:45;;;;;;;14.18;7.30;;;;;;;;;;143744;583;45021;-60
2021/11/25 04:21:12;;;;;;;12.02;8.50;;;;;;;;;;143738;635;47920;-60
2021/11/25 04:23:39;;;;;;;10.50;6.82;;;;;;;;;;143741;603;46020;-60
2021/11/25 04:26:07;;;;;;;10.05;7.25;;;;;;;;;;143744;605;46020;-60
2021/11/25 04:28:34;;;;;;;12.73;8.13;;;;;;;;;;143741;633;46023;-61
2021/11/25 04:36:32;;;;;;;14.80;7.07;;;;;;;;;;143745;715;46022;-59
2021/11/25 04:38:59;;;;;;;15.70;8.80;;;;;;;;;;143743;570;46022;-61
2021/11/25 04:41:27;;;;;;;11.48;7.55;;;;;;;;;;143742;570;46011;-60
2021/11/25 04:43:55;;;;;;;11.95;7.05;;;;;;;;;;143741;617;46020;-60
2021/11/25 04:46:22;;;;;;;11.25;8.45;;;;;;;;;;143742;597;46020;-61
2021/11/25 04:48:50;;;;;;;11.95;7.68;;;;;;;;;;143740;585;47021;-61
2021/11/25 04:51:17;;;;;;;11.10;6.70;;;;;;;;;;143739;675;47020;-61
2021/11/25 04:53:44;;;;;;;10.88;6.75;;;;;;;;;;143740;605;46020;-60
2021/11/25 04:56:12;;;;;;;13.10;7.30;;;;;;;;;;143744;686;46020;-60
2021/11/25 04:58:40;;;;;;;11.70;7.60;;;;;;;;;;143742;632;46022;-60
2021/11/25 05:01:08;;;;;;;12.50;7.60;;;;;;;;;;143740;655;46010;-61
2021/11/25 05:03:35;;;;;;;15.10;9.50;;;;;;;;;;143743;599;46020;-61
2021/11/25 05:06:03;;;;;;;15.88;8.05;;;;;;;;;;143743;616;46020;-61
2021/11/25 05:08:32;;;;;;;12.77;8.80;;;;;;;;;;143739;566;47020;-61
2021/11/25 05:10:59;;;;;;;13.32;8.05;;;;;;;;;;143739;667;47010;-61
2021/11/25 05:13:28;;;;;;;12.10;8.30;;;;;;;;;;143743;591;45020;-61
2021/11/25 05:15:55;;;;;;;11.90;7.62;;;;;;;;;;143742;571;46020;-61
2021/11/25 05:18:22;;;;;;;13.05;7.32;;;;;;;;;;143732;588;46022;-61
2021/11/25 05:20:50;;;;;;;13.40;7.87;;;;;;;;;;143728;566;46010;-61
2021/11/25 05:23:17;;;;;;;9.60;7.62;;;;;;;;;;143727;585;46020;-60
2021/11/25 05:25:45;;;;;;;11.60;8.48;;;;;;;;;;143727;588;47010;-61
2021/11/25 05:28:12;;;;;;;17.20;10.63;;;;;;;;;;143724;602;47023;-60
2021/11/25 05:30:39;;;;;;;16.15;11.00;;;;;;;;;;143724;582;47010;-60
2021/11/25 05:33:07;;;;;;;14.18;9.30;;;;;;;;;;143726;585;46021;-60
2021/11/25 05:35:35;;;;;;;15.98;10.18;;;;;;;;;;143727;585;47012;-60
2021/11/25 05:38:03;;;;;;;14.63;9.90;;;;;;;;;;143726;573;47020;-61
2021/11/25 05:40:30;;;;;;;14.20;9.75;;;;;;;;;;143729;638;45919;-60
2021/11/25 05:42:58;;;;;;;13.57;9.48;;;;;;;;;;143724;660;47020;-60
2021/11/25 05:45:26;;;;;;;15.70;11.20;;;;;;;;;;143729;565;46024;-60
2021/11/25 05:47:54;;;;;;;14.93;9.55;;;;;;;;;;143728;578;46022;-60
2021/11/25 05:50:25;;;;;;;10.80;7.93;;;;;;;;;;143730;616;46010;-60
2021/11/25 05:52:55;;;;;;;14.10;9.10;;;;;;;;;;143726;585;46020;-61
2021/11/25 05:55:26;;;;;;;13.70;7.43;;;;;;;;;;143728;569;46020;-61
2021/11/25 05:57:59;;;;;;;22.00;16.25;;;;;;;;;;143724;570;47020;-61
2021/11/25 06:00:36;;;;;;;62.03;42.03;;;;;;;;;;143728;573;46010;-61
2021/11/25 06:03:18;;;;;;;63.13;42.20;;;;;;;;;;143727;647;46020;-61
2021/11/25 06:05:58;;;;;;;25.08;17.40;;;;;;;;;;143729;626;46020;-61
2021/11/25 06:08:36;;;;;;;27.40;18.85;;;;;;;;;;143727;573;46022;-61
2021/11/25 06:44:41;;;;;;;26.23;16.43;;;;;;;;;;143741;588;46010;-59
2021/11/25 06:47:11;;;;;;;27.23;13.57;;;;;;;;;;143745;613;46018;-59
2021/11/25 06:49:38;;;;;;;19.42;10.20;;;;;;;;;;143740;596;46023;-58
2021/11/25 06:52:06;;;;;;;24.98;16.02;;;;;;;;;;143738;677;47010;-58
2021/11/25 06:54:33;;;;;;;28.40;14.95;;;;;;;;;;143739;573;46021;-57
2021/11/25 06:56:59;;;;;;;16.45;11.35;;;;;;;;;;143742;657;47010;-57
2021/11/25 06:59:27;;;;;;;18.52;11.82;;;;;;;;;;143738;592;47022;-58
2021/11/25 07:01:56;;;;;;;21.00;12.98;;;;;;;;;;143739;578;47010;-57
2021/11/25 07:04:23;;;;;;;33.55;18.17;;;;;;;;;;143739;569;47029;-58
2021/11/25 07:06:50;;;;;;;27.83;18.70;;;;;;;;;;143744;735;46020;-57
2021/11/25 07:09:17;;;;;;;33.25;18.23;;;;;;;;;;143739;655;47021;-57
2021/11/25 07:11:44;;;;;;;23.12;11.80;;;;;;;;;;143740;638;47010;-57
2021/11/25 07:14:11;;;;;;;19.15;11.70;;;;;;;;;;143738;577;46020;-58
2021/11/25 07:16:38;;;;;;;44.00;27.33;;;;;;;;;;143744;598;46020;-58
2021/11/25 07:19:05;;;;;;;65.50;36.05;;;;;;;;;;143743;640;46023;-57
2021/11/25 07:21:32;;;;;;;58.10;32.95;;;;;;;;;;143739;573;47010;-57
2021/11/25 07:23:59;;;;;;;35.35;20.37;;;;;;;;;;143740;599;46020;-57
2021/11/25 07:26:26;;;;;;;34.40;22.17;;;;;;;;;;143742;585;46021;-57
2021/11/25 07:28:56;;;;;;;36.35;22.02;;;;;;;;;;143739;595;47022;-57
2021/11/25 07:31:29;;;;;;;39.85;20.52;;;;;;;;;;143742;583;45917;-57
2021/11/25 07:33:57;;;;;;;39.03;24.20;;;;;;;;;;143737;567;46021;-57
2021/11/25 07:36:24;;;;;;;34.45;19.67;;;;;;;;;;143744;592;46020;-57
2021/11/25 07:38:51;;;;;;;37.65;20.48;;;;;;;;;;143739;676;47021;-58
2021/11/25 07:41:18;;;;;;;33.88;18.65;;;;;;;;;;143742;569;46020;-57
2021/11/25 07:43:45;;;;;;;34.65;14.60;;;;;;;;;;143733;579;46020;-57
2021/11/25 07:46:13;;;;;;;25.58;17.12;;;;;;;;;;143727;569;46020;-58
2021/11/25 07:48:40;;;;;;;24.20;13.02;;;;;;;;;;143728;601;46023;-58
2021/11/25 07:51:07;;;;;;;23.62;14.43;;;;;;;;;;143724;577;47010;-57
2021/11/25 07:53:35;;;;;;;30.48;14.90;;;;;;;;;;143727;570;46020;-57
2021/11/25 07:56:01;;;;;;;24.17;13.98;;;;;;;;;;143727;628;47010;-57
2021/11/25 07:58:29;;;;;;;23.12;13.05;;;;;;;;;;143726;573;46022;-58
2021/11/25 08:00:56;;;;;;;29.50;13.50;;;;;;;;;;143724;592;47010;-57
2021/11/25 08:03:24;;;;;;;32.25;14.05;;;;;;;;;;143727;569;46021;-58
2021/11/25 08:05:52;;;;;;;25.90;13.70;;;;;;;;;;143729;564;46020;-57
2021/11/25 08:08:20;;;;;;;24.12;10.48;;;;;;;;;;143724;600;47022;-58
2021/11/25 08:10:47;;;;;;;24.25;11.55;;;;;;;;;;143726;587;46012;-57
2021/11/25 08:13:14;;;;;;;20.60;11.45;;;;;;;;;;143726;667;46020;-58
2021/11/25 08:15:41;;;;;;;22.02;11.55;;;;;;;;;;143727;626;47012;-57
2021/11/25 08:18:08;;;;;;;18.20;11.50;;;;;;;;;;143727;758;46023;-57
2021/11/25 08:20:35;;;;;;;21.80;10.85;;;;;;;;;;143725;720;47010;-58
2021/11/25 08:23:02;;;;;;;21.35;9.48;;;;;;;;;;143723;574;47020;-58
2021/11/25 08:25:30;;;;;;;32.05;9.70;;;;;;;;;;143729;584;46021;-57
2021/11/25 08:27:59;;;;;;;18.77;9.18;;;;;;;;;;143726;740;47020;-58
2021/11/25 08:30:27;;;;;;;16.05;9.23;;;;;;;;;;143726;680;46020;-58
2021/11/25 08:32:54;;;;;;;15.75;10.10;;;;;;;;;;143726;569;46021;-58
2021/11/25 08:35:22;;;;;;;18.85;8.85;;;;;;;;;;143729;590;46020;-58
2021/11/25 08:37:49;;;;;;;16.90;8.88;;;;;;;;;;143726;594;47020;-58
2021/11/25 08:40:17;;;;;;;14.15;7.35;;;;;;;;;;143726;586;46011;-58
2021/11/25 08:42:47;;;;;;;20.48;7.75;;;;;;;;;;143726;572;47020;-58
2021/11/25 08:45:16;;;;;;;17.77;8.77;;;;;;;;;;143727;595;47010;-58
2021/11/25 08:47:46;;;;;;;19.17;7.00;;;;;;;;;;143729;585;46023;-58
2021/11/25 08:50:17;;;;;;;14.77;7.55;;;;;;;;;;143730;569;46010;-58
2021/11/25 08:52:44;;;;;;;13.48;7.45;;;;;;;;;;143727;566;46020;-58
2021/11/25 08:55:12;;;;;;;17.60;7.25;;;;;;;;;;143729;591;46021;-58
2021/11/25 08:57:39;;;;;;;19.00;7.20;;;;;;;;;;143726;674;46022;-58
2021/11/25 09:00:10;;;;;;;17.30;7.03;;;;;;;;;;143730;564;45916;-58
2021/11/25 09:02:38;;;;;;;14.63;7.35;;;;;;;;;;143728;639;46021;-57
2021/11/25 09:05:06;;;;;;;10.23;6.68;;;;;;;;;;143728;566;47012;-57
2021/11/25 09:07:34;;;;;;;14.05;7.45;;;;;;;;;;143729;647;46022;-58
2021/11/25 09:10:01;;;;;;;16.55;8.48;;;;;;;;;;143727;591;46010;-58
2021/11/25 09:12:28;;;;;;;21.75;12.68;;;;;;;;;;143726;633;47020;-57
2021/11/25 09:14:55;;;;;;;18.10;11.05;;;;;;;;;;143728;573;46020;-58
2021/11/25 09:17:23;;;;;;;34.60;20.15;;;;;;;;;;143729;566;46040;-58
2021/11/25 09:19:50;;;;;;;22.00;10.52;;;;;;;;;;143725;564;47010;-57
2021/11/25 09:22:17;;;;;;;26.12;14.87;;;;;;;;;;143724;592;46020;-57
2021/11/25 09:24:44;;;;;;;23.25;13.73;;;;;;;;;;143731;620;46021;-57
2021/11/25 09:27:11;;;;;;;15.27;9.52;;;;;;;;;;143728;587;46022;-58
2021/11/25 09:29:38;;;;;;;16.17;8.65;;;;;;;;;;143727;579;47010;-58
2021/11/25 09:32:06;;;;;;;16.77;9.40;;;;;;;;;;143726;569;47021;-57
2021/11/25 09:34:33;;;;;;;22.80;11.05;;;;;;;;;;143729;625;46020;-58
2021/11/25 09:37:00;;;;;;;17.12;9.05;;;;;;;;;;143727;590;47022;-58
2021/11/25 09:39:27;;;;;;;23.80;12.70;;;;;;;;;;143727;570;46020;-57
2021/11/25 09:41:55;;;;;;;24.00;13.15;;;;;;;;;;143725;565;46020;-57
2021/11/25 09:44:22;;;;;;;26.50;16.08;;;;;;;;;;143728;720;46020;-58
2021/11/25 09:46:55;;;;;;;16.80;11.27;;;;;;;;;;143728;570;46022;-57
2021/11/25 09:49:24;;;;;;;20.52;12.10;;;;;;;;;;143722;579;47010;-58
2021/11/25 09:51:54;;;;;;;14.68;7.97;;;;;;;;;;143727;587;46020;-57
2021/11/25 09:54:22;;;;;;;13.38;7.85;;;;;;;;;;143726;569;46021;-58
2021/11/25 09:56:51;;;;;;;16.00;7.72;;;;;;;;;;143725;596;47020;-58
2021/11/25 09:59:18;;;;;;;17.67;11.02;;;;;;;;;;143726;563;47022;-57
2021/11/25 10:01:45;;;;;;;14.73;7.20;;;;;;;;;;143727;598;46021;-58
2021/11/25 10:04:12;;;;;;;17.17;9.38;;;;;;;;;;143729;603;46020;-58
2021/11/25 10:06:54;;;;;;;19.40;7.72;;;;;;;;;;143727;571;46022;-58
2021/11/25 10:09:40;;;;;;;20.40;10.73;;;;;;;;;;143726;598;47010;-57
2021/11/25 10:12:37;;;;;;;13.95;8.10;;;;;;;;;;143729;575;46020;-58
2021/11/25 10:15:32;;;;;;;15.73;9.80;;;;;;;;;;143730;598;46022;-57
2021/11/25 10:18:03;;;;;;;15.90;9.73;;;;;;;;;;143725;707;47023;-57
2021/11/25 10:20:37;;;;;;;26.40;8.93;;;;;;;;;;143725;708;47010;-58
2021/11/25 10:23:29;;;;;;;14.35;8.20;;;;;;;;;;143725;594;46021;-58
2021/11/25 10:26:16;;;;;;;18.35;7.82;;;;;;;;;;143728;577;47010;-58
2021/11/25 10:28:50;;;;;;;14.95;8.95;;;;;;;;;;143719;577;50020;-58
2021/11/25 10:31:42;;;;;;;14.70;8.75;;;;;;;;;;143725;570;47011;-58
2021/11/25 10:34:14;;;;;;;25.98;8.40;;;;;;;;;;143724;564;47906;-57
2021/11/25 10:42:41;;;;;;;23.42;10.07;;;;;;;;;;143727;630;46020;-57
2021/11/25 10:45:13;;;;;;;16.70;9.57;;;;;;;;;;143730;640;46021;-57
2021/11/25 10:47:40;;;;;;;19.58;11.80;;;;;;;;;;143731;592;46021;-58
2021/11/25 10:50:15;;;;;;;17.50;10.45;;;;;;;;;;143726;628;48035;-58
2021/11/25 10:52:44;;;;;;;24.65;15.35;;;;;;;;;;143729;573;46013;-58
2021/11/25 10:55:23;;;;;;;18.33;9.35;;;;;;;;;;143727;583;46021;-59
2021/11/25 10:57:53;;;;;;;18.83;10.13;;;;;;;;;;143733;566;46020;-58
2021/11/25 11:00:27;;;;;;;14.77;9.43;;;;;;;;;;143731;620;46022;-58
2021/11/25 11:03:13;;;;;;;13.18;8.80;;;;;;;;;;143726;583;47010;-57
2021/11/25 11:05:59;;;;;;;15.60;7.90;;;;;;;;;;143727;579;47020;-57
2021/11/25 11:08:29;;;;;;;11.77;7.45;;;;;;;;;;143730;591;47011;-57
2021/11/25 11:11:00;;;;;;;20.77;8.75;;;;;;;;;;143727;569;47023;-58
2021/11/25 11:13:37;;;;;;;18.02;8.93;;;;;;;;;;143726;571;47010;-58
2021/11/25 11:16:25;;;;;;;16.48;11.27;;;;;;;;;;143727;565;47021;-58
2021/11/25 11:19:03;;;;;;;18.87;8.98;;;;;;;;;;143729;583;46020;-57
2021/11/25 11:21:39;;;;;;;13.48;7.30;;;;;;;;;;143728;587;47020;-57
2021/11/25 11:24:13;;;;;;;12.98;7.80;;;;;;;;;;143726;604;46020;-58
2021/11/25 11:26:43;;;;;;;14.90;7.95;;;;;;;;;;143727;571;46020;-57
2021/11/25 11:29:11;;;;;;;14.95;6.12;;;;;;;;;;143731;603;46020;-58
2021/11/25 11:31:40;;;;;;;11.63;7.07;;;;;;;;;;143727;573;47021;-57
2021/11/25 11:34:09;;;;;;;15.75;10.43;;;;;;;;;;143728;606;46010;-58
2021/11/25 11:36:44;;;;;;;17.60;8.38;;;;;;;;;;143729;584;46020;-58
2021/11/25 11:39:13;;;;;;;13.85;9.00;;;;;;;;;;143731;641;46021;-57
2021/11/25 11:41:42;;;;;;;12.20;6.53;;;;;;;;;;143728;646;46022;-58
2021/11/25 11:44:09;;;;;;;15.60;8.95;;;;;;;;;;143729;587;46917;-58
2021/11/25 11:46:37;;;;;;;16.02;8.68;;;;;;;;;;143728;631;46021;-58
2021/11/25 11:49:06;;;;;;;12.77;7.47;;;;;;;;;;143730;564;46020;-58
2021/11/25 11:51:35;;;;;;;11.73;6.55;;;;;;;;;;143730;575;46022;-58
2021/11/25 11:54:03;;;;;;;11.68;7.05;;;;;;;;;;143728;596;47010;-58
2021/11/25 11:56:55;;;;;;;13.45;6.20;;;;;;;;;;143727;587;46020;-58
2021/11/25 11:59:40;;;;;;;19.17;6.40;;;;;;;;;;143732;625;46020;-58
2021/11/25 12:02:07;;;;;;;11.50;7.82;;;;;;;;;;143727;597;46023;-58
2021/11/25 12:04:44;;;;;;;11.02;7.87;;;;;;;;;;143731;589;45916;-58
2021/11/25 12:07:31;;;;;;;10.43;6.62;;;;;;;;;;143723;569;47907;-58
2021/11/25 12:09:58;;;;;;;12.05;6.37;;;;;;;;;;143732;583;46026;-58
2021/11/25 12:12:26;;;;;;;11.60;6.60;;;;;;;;;;143728;588;46022;-58
2021/11/25 12:14:56;;;;;;;9.73;5.68;;;;;;;;;;143729;572;46020;-58
2021/11/25 12:17:35;;;;;;;12.95;5.93;;;;;;;;;;143729;585;46021;-58
2021/11/25 12:20:25;;;;;;;7.65;4.82;;;;;;;;;;143731;575;46020;-58
2021/11/25 12:22:54;;;;;;;11.77;6.93;;;;;;;;;;143727;589;46022;-57
2021/11/25 12:25:41;;;;;;;12.65;7.70;;;;;;;;;;143727;576;47010;-58
2021/11/25 12:28:27;;;;;;;10.15;5.85;;;;;;;;;;143725;575;47020;-58
2021/11/25 12:33:48;;;;;;;9.27;5.35;;;;;;;;;;143730;602;46022;-58
2021/11/25 12:36:39;;;;;;;11.18;6.53;;;;;;;;;;143729;585;46010;-58
2021/11/25 12:39:45;;;;;;;12.75;7.70;;;;;;;;;;143726;578;47020;-59
2021/11/25 12:42:12;;;;;;;14.40;7.78;;;;;;;;;;143732;585;46020;-58
2021/11/25 12:44:43;;;;;;;9.85;4.60;;;;;;;;;;143731;611;46022;-58
2021/11/25 12:47:20;;;;;;;12.10;6.18;;;;;;;;;;143730;662;46020;-58
2021/11/25 12:49:52;;;;;;;10.40;5.18;;;;;;;;;;143728;567;46020;-59
2021/11/25 12:52:37;;;;;;;12.45;7.55;;;;;;;;;;143733;570;46020;-59
2021/11/25 12:55:11;;;;;;;6.93;4.45;;;;;;;;;;143731;587;46022;-59
2021/11/25 12:57:57;;;;;;;11.35;7.43;;;;;;;;;;143730;569;45919;-59
2021/11/25 13:00:29;;;;;;;12.35;6.00;;;;;;;;;;143730;631;46020;-59
2021/11/25 13:03:14;;;;;;;14.73;7.82;;;;;;;;;;143732;587;46020;-59
2021/11/25 13:05:54;;;;;;;9.38;6.57;;;;;;;;;;143728;592;46022;-59
2021/11/25 13:08:43;;;;;;;10.80;5.75;;;;;;;;;;143731;573;45919;-59
2021/11/25 13:11:27;;;;;;;12.70;6.70;;;;;;;;;;143731;591;46020;-59
2021/11/25 13:14:01;;;;;;;10.48;7.20;;;;;;;;;;143733;617;46020;-60
2021/11/25 13:16:31;;;;;;;9.55;6.10;;;;;;;;;;143730;570;46023;-59
2021/11/25 13:19:04;;;;;;;8.77;5.82;;;;;;;;;;143729;594;47020;-59
2021/11/25 13:21:56;;;;;;;19.50;7.00;;;;;;;;;;143727;570;47020;-59
2021/11/25 13:24:35;;;;;;;11.05;5.82;;;;;;;;;;143733;588;46020;-59
2021/11/25 13:27:11;;;;;;;8.18;5.62;;;;;;;;;;143731;597;46022;-59
2021/11/25 13:30:01;;;;;;;14.48;9.70;;;;;;;;;;143731;629;45919;-59
2021/11/25 13:32:43;;;;;;;25.77;14.38;;;;;;;;;;143728;575;46020;-59
2021/11/25 13:35:21;;;;;;;23.30;16.15;;;;;;;;;;143732;629;46020;-59
2021/11/25 13:37:52;;;;;;;26.77;15.82;;;;;;;;;;143731;570;46023;-59
2021/11/25 13:40:27;;;;;;;14.25;8.32;;;;;;;;;;143730;614;45919;-59
2021/11/25 13:43:09;;;;;;;18.55;10.48;;;;;;;;;;143730;594;46020;-58
2021/11/25 13:45:56;;;;;;;14.65;9.93;;;;;;;;;;143732;600;46021;-59
2021/11/25 13:48:23;;;;;;;22.55;13.80;;;;;;;;;;143728;610;47020;-59
2021/11/25 13:50:53;;;;;;;23.48;16.52;;;;;;;;;;143725;609;46020;-59
2021/11/25 13:53:32;;;;;;;13.90;9.10;;;;;;;;;;143732;584;46021;-60
2021/11/25 13:56:11;;;;;;;16.40;10.65;;;;;;;;;;143732;572;46020;-59
2021/11/25 13:58:46;;;;;;;12.50;8.30;;;;;;;;;;143731;570;46022;-59
2021/11/25 14:01:25;;;;;;;10.05;5.62;;;;;;;;;;143731;566;45919;-60
2021/11/25 14:03:57;;;;;;;15.68;7.68;;;;;;;;;;143731;566;46020;-60
2021/11/25 14:06:38;;;;;;;9.23;5.18;;;;;;;;;;143734;617;46020;-60
2021/11/25 14:09:21;;;;;;;16.48;6.62;;;;;;;;;;143731;586;46023;-60
2021/11/25 14:12:09;;;;;;;12.68;7.22;;;;;;;;;;143731;608;45919;-60
2021/11/25 14:14:48;;;;;;;9.63;6.45;;;;;;;;;;143731;598;46021;-60
2021/11/25 14:17:24;;;;;;;11.85;7.00;;;;;;;;;;143733;614;46020;-60
2021/11/25 14:19:55;;;;;;;9.45;5.87;;;;;;;;;;143731;577;46022;-60
2021/11/25 14:22:31;;;;;;;9.85;6.70;;;;;;;;;;143731;569;45919;-60
2021/11/25 14:25:04;;;;;;;10.60;6.20;;;;;;;;;;143730;585;46020;-60
2021/11/25 14:30:24;;;;;;;12.25;5.70;;;;;;;;;;143730;641;46023;-60
2021/11/25 14:33:06;;;;;;;14.13;6.10;;;;;;;;;;143731;592;45916;-60
2021/11/25 14:35:44;;;;;;;9.10;4.72;;;;;;;;;;143729;570;46020;-60
2021/11/25 14:38:18;;;;;;;8.02;5.85;;;;;;;;;;143728;597;46021;-60
2021/11/25 14:40:49;;;;;;;11.57;5.78;;;;;;;;;;143731;569;46022;-60
2021/11/25 14:43:23;;;;;;;11.38;6.72;;;;;;;;;;143730;605;46010;-59
2021/11/25 14:45:55;;;;;;;12.05;6.95;;;;;;;;;;143731;614;46021;-60
2021/11/25 14:48:28;;;;;;;13.48;7.28;;;;;;;;;;143730;599;46020;-60
2021/11/25 14:51:09;;;;;;;13.18;6.72;;;;;;;;;;143730;589;46022;-60
2021/11/25 14:53:44;;;;;;;12.93;7.15;;;;;;;;;;143727;582;46020;-60
2021/11/25 14:56:23;;;;;;;13.50;7.55;;;;;;;;;;143728;590;46020;-60
2021/11/25 14:59:11;;;;;;;13.10;8.50;;;;;;;;;;143732;592;46020;-60
2021/11/25 15:01:45;;;;;;;18.77;9.27;;;;;;;;;;143728;564;46023;-59
2021/11/25 15:04:19;;;;;;;19.08;11.43;;;;;;;;;;143730;564;46010;-60
2021/11/25 15:07:05;;;;;;;12.10;8.32;;;;;;;;;;143728;594;47021;-59
2021/11/25 15:09:31;;;;;;;;;;;;;;;;;;143735;982;46020;-60
2021/11/25 15:11:59;;;;;;;12.48;8.23;;;;;;;;;;143731;574;47022;-60
2021/11/25 15:14:29;;;;;;;12.98;8.18;;;;;;;;;;143732;616;46010;-60
2021/11/25 15:16:56;;;;;;;14.87;8.57;;;;;;;;;;143728;636;46020;-60
2021/11/25 15:19:23;;;;;;;13.88;8.25;;;;;;;;;;143733;566;46020;-60
2021/11/25 15:21:50;;;;;;;19.55;9.40;;;;;;;;;;143726;565;47021;-60
2021/11/25 15:24:18;;;;;;;13.00;9.00;;;;;;;;;;143725;644;47010;-60
2021/11/25 15:26:46;;;;;;;19.58;11.88;;;;;;;;;;143723;569;46020;-59
2021/11/25 15:29:13;;;;;;;20.75;13.77;;;;;;;;;;143727;606;46020;-60
2021/11/25 15:31:42;;;;;;;29.58;16.00;;;;;;;;;;143726;597;46049;-59
2021/11/25 15:34:09;;;;;;;15.07;10.80;;;;;;;;;;143726;672;47010;-60
2021/11/25 15:36:37;;;;;;;20.75;13.18;;;;;;;;;;143726;607;46020;-60
2021/11/25 15:39:05;;;;;;;21.08;12.10;;;;;;;;;;143727;565;46020;-60
2021/11/25 15:41:33;;;;;;;18.05;11.27;;;;;;;;;;143726;582;46022;-60
2021/11/25 15:44:00;;;;;;;16.15;8.93;;;;;;;;;;143723;632;47010;-60
2021/11/25 15:46:28;;;;;;;12.02;7.50;;;;;;;;;;143727;591;46020;-60
2021/11/25 15:48:54;;;;;;;10.40;7.40;;;;;;;;;;143729;620;46020;-60
2021/11/25 15:51:22;;;;;;;16.77;8.43;;;;;;;;;;143724;593;47023;-60
2021/11/25 15:53:49;;;;;;;17.05;8.07;;;;;;;;;;143726;609;46010;-60
2021/11/25 15:56:16;;;;;;;16.42;9.68;;;;;;;;;;143727;592;46022;-59
2021/11/25 15:58:43;;;;;;;11.20;7.78;;;;;;;;;;143730;605;46019;-60
2021/11/25 16:01:10;;;;;;;11.02;7.25;;;;;;;;;;143726;744;46023;-60
2021/11/25 16:03:37;;;;;;;16.27;7.82;;;;;;;;;;143726;579;47010;-60
2021/11/25 16:06:07;;;;;;;13.52;7.00;;;;;;;;;;143725;584;47021;-59
2021/11/25 16:08:36;;;;;;;13.82;7.37;;;;;;;;;;143724;592;47010;-60
2021/11/25 16:11:05;;;;;;;15.45;7.10;;;;;;;;;;143722;736;47020;-60
2021/11/25 16:13:40;;;;;;;18.40;7.75;;;;;;;;;;143726;647;46010;-60
2021/11/25 16:16:07;;;;;;;12.02;7.22;;;;;;;;;;143726;642;46020;-60
2021/11/25 16:18:34;;;;;;;15.93;7.60;;;;;;;;;;143728;568;46020;-60
2021/11/25 16:21:02;;;;;;;16.73;7.57;;;;;;;;;;143726;570;47020;-59
2021/11/25 16:23:29;;;;;;;11.40;6.75;;;;;;;;;;143726;591;47010;-59
2021/11/25 16:25:56;;;;;;;13.20;7.93;;;;;;;;;;143725;566;46020;-60
2021/11/25 16:28:24;;;;;;;21.75;7.15;;;;;;;;;;143729;618;46021;-59
2021/11/25 16:30:53;;;;;;;12.85;6.80;;;;;;;;;;143725;665;47020;-60
2021/11/25 16:33:24;;;;;;;11.70;7.30;;;;;;;;;;143726;603;47010;-60
2021/11/25 16:35:51;;;;;;;14.00;7.75;;;;;;;;;;143725;570;46021;-59
2021/11/25 16:38:19;;;;;;;17.17;7.72;;;;;;;;;;143729;574;46020;-59
2021/11/25 16:40:49;;;;;;;20.23;9.98;;;;;;;;;;143727;577;46022;-60
2021/11/25 16:43:18;;;;;;;16.08;7.25;;;;;;;;;;143724;589;47011;-60
2021/11/25 16:45:45;;;;;;;14.63;7.90;;;;;;;;;;143728;564;46020;-60
2021/11/25 16:48:20;;;;;;;14.20;7.57;;;;;;;;;;143727;591;46020;-60
2021/11/25 16:51:02;;;;;;;14.87;8.18;;;;;;;;;;143724;591;47021;-60
2021/11/25 16:53:32;;;;;;;11.52;7.30;;;;;;;;;;143727;573;46020;-60
2021/11/25 16:56:00;;;;;;;15.40;7.90;;;;;;;;;;143723;577;47020;-60
2021/11/25 16:58:28;;;;;;;13.07;7.97;;;;;;;;;;143729;608;46021;-60
2021/11/25 17:00:56;;;;;;;18.52;8.48;;;;;;;;;;143722;678;47022;-60
2021/11/25 17:03:23;;;;;;;18.12;9.02;;;;;;;;;;143724;590;47010;-60
2021/11/25 17:05:50;;;;;;;13.90;7.10;;;;;;;;;;143726;575;46021;-60
2021/11/25 17:08:19;;;;;;;13.38;8.15;;;;;;;;;;143726;600;46020;-61
2021/11/25 17:10:50;;;;;;;12.80;8.25;;;;;;;;;;143726;614;46037;-60
2021/11/25 17:13:20;;;;;;;15.50;8.55;;;;;;;;;;143725;638;47010;-59
2021/11/25 17:15:47;;;;;;;12.60;8.10;;;;;;;;;;143725;569;47020;-60
2021/11/25 17:18:15;;;;;;;12.63;8.38;;;;;;;;;;143727;659;47010;-60
2021/11/25 17:20:44;;;;;;;16.73;9.98;;;;;;;;;;143725;630;47023;-60
2021/11/25 17:23:11;;;;;;;11.63;8.20;;;;;;;;;;143724;602;47010;-59
2021/11/25 17:25:38;;;;;;;15.68;8.80;;;;;;;;;;143724;571;46020;-60
2021/11/25 17:28:05;;;;;;;20.40;10.63;;;;;;;;;;143729;570;46021;-60
2021/11/25 17:30:32;;;;;;;16.23;9.95;;;;;;;;;;143725;630;47020;-60
2021/11/25 17:33:00;;;;;;;13.80;8.98;;;;;;;;;;143728;673;46020;-60
2021/11/25 17:35:28;;;;;;;16.37;9.82;;;;;;;;;;143726;620;46021;-60
2021/11/25 17:37:55;;;;;;;13.68;8.20;;;;;;;;;;143727;595;47010;-60
2021/11/25 17:40:22;;;;;;;19.85;11.25;;;;;;;;;;143726;569;47029;-60
2021/11/25 17:42:53;;;;;;;12.20;7.93;;;;;;;;;;143727;604;46010;-60
2021/11/25 17:45:22;;;;;;;14.18;9.57;;;;;;;;;;143729;625;46020;-60
2021/11/25 17:47:50;;;;;;;14.02;9.82;;;;;;;;;;143729;611;46020;-60
2021/11/25 17:50:18;;;;;;;25.58;13.50;;;;;;;;;;143727;577;46023;-60
2021/11/25 17:52:49;;;;;;;25.98;16.10;;;;;;;;;;143727;604;46010;-61
2021/11/25 17:55:16;;;;;;;22.60;13.07;;;;;;;;;;143724;579;46020;-61
2021/11/25 17:57:43;;;;;;;23.12;15.77;;;;;;;;;;143727;581;46021;-60
2021/11/25 18:00:12;;;;;;;13.38;10.30;;;;;;;;;;143727;618;46022;-60
2021/11/25 18:02:39;;;;;;;30.42;14.87;;;;;;;;;;143727;608;46917;-60
2021/11/25 18:05:08;;;;;;;24.85;14.30;;;;;;;;;;143726;581;46021;-59
2021/11/25 18:07:36;;;;;;;22.40;15.20;;;;;;;;;;143728;630;46020;-60
2021/11/25 18:10:05;;;;;;;18.85;12.70;;;;;;;;;;143727;622;46022;-60
2021/11/25 18:12:32;;;;;;;19.95;12.85;;;;;;;;;;143725;586;47010;-60
2021/11/25 18:15:03;;;;;;;23.23;11.63;;;;;;;;;;143727;597;46020;-60
2021/11/25 18:17:30;;;;;;;17.23;11.52;;;;;;;;;;143728;613;46020;-60
2021/11/25 18:19:58;;;;;;;16.15;11.02;;;;;;;;;;143727;593;46023;-60
2021/11/25 18:22:26;;;;;;;14.70;10.85;;;;;;;;;;143727;586;46020;-60
2021/11/25 18:24:55;;;;;;;14.55;9.20;;;;;;;;;;143728;574;46020;-61
2021/11/25 18:27:22;;;;;;;13.90;9.60;;;;;;;;;;143729;589;46021;-61
2021/11/25 18:29:49;;;;;;;18.15;11.20;;;;;;;;;;143726;565;47033;-61
2021/11/25 18:32:16;;;;;;;24.23;10.65;;;;;;;;;;143727;658;46010;-60
2021/11/25 18:34:44;;;;;;;14.57;10.27;;;;;;;;;;143723;585;47021;-60
2021/11/25 18:37:11;;;;;;;18.02;9.80;;;;;;;;;;143729;592;47020;-60
2021/11/25 18:39:40;;;;;;;12.27;9.00;;;;;;;;;;143725;565;47020;-60